FW8937 Weather Reports


Display with metric or nautical units.
time (UTC)temp
F
wind
direction
speed
MPH
gust
MPH
rain 1hr
in
rain 24hr
in
rain mn
in
humidity
%
barometer
mb
20230205210144 50 284 6.0 17.0 0.00 0.00 0.00 20 1011.7
20230205205639 50 281 3.0 10.0 0.00 0.00 0.00 20 1011.9
20230205205133 50 257 6.0 15.0 0.00 0.00 0.00 23 1011.8
20230205204904 49 202 8.0 15.0 0.00 0.00 0.00 22 1011.9
20230205204133 49 205 7.0 14.0 0.00 0.00 0.00 22 1012.1
20230205203904 49 203 10.0 25.0 0.00 0.00 0.00 22 1012.2
20230205203133 50 281 10.0 25.0 0.00 0.00 0.00 21 1012.3
20230205202632 50 200 9.0 18.0 0.00 0.00 0.00 21 1012.5
20230205202134 49 228 10.0 18.0 0.00 0.00 0.00 22 1012.6
20230205201633 49 224 11.0 20.0 0.00 0.00 0.00 23 1012.7
20230205201134 49 258 14.0 28.0 0.00 0.00 0.00 21 1012.7
20230205200633 49 252 16.0 28.0 0.00 0.00 0.00 23 1012.8
20230205200132 49 0 17.0 28.0 0.00 0.00 0.00 21 1013.0
20230205195903 49 246 14.0 28.0 0.00 0.00 0.00 20 1013.1
20230205195132 50 258 10.0 25.0 0.00 0.00 0.00 21 1013.2
20230205194632 49 300 9.0 17.0 0.00 0.00 0.00 21 1013.4
20230205194402 49 208 11.0 19.0 0.00 0.00 0.00 23 1013.5
20230205193903 49 296 11.0 20.0 0.00 0.00 0.00 21 1013.5
20230205193132 48 290 12.0 20.0 0.00 0.00 0.00 21 1013.8
20230205192625 48 254 12.0 25.0 0.00 0.00 0.00 23 1013.8
20230205192119 47 239 12.0 25.0 0.00 0.00 0.00 23 1013.9
20230205191613 47 287 11.0 20.0 0.00 0.00 0.00 22 1014.2
20230205191339 47 259 11.0 22.0 0.00 0.00 0.00 22 1014.2
20230205190601 47 253 12.0 23.0 0.00 0.00 0.00 24 1014.2
20230205190055 47 232 12.0 25.0 0.00 0.00 0.00 22 1014.2
20230205185549 47 247 13.0 28.0 0.00 0.00 0.00 24 1014.4
20230205185043 46 0 15.0 28.0 0.00 0.00 0.00 22 1014.5
20230205184536 46 278 14.0 27.0 0.00 0.00 0.00 22 1015.1
20230205184030 46 240 12.0 26.0 0.00 0.00 0.00 22 1015.1
20230205183525 47 0 13.0 26.0 0.00 0.00 0.00 22 1015.2
20230205183250 47 232 13.0 26.0 0.00 0.00 0.00 23 1015.2
20230205182740 46 0 11.0 22.0 0.00 0.00 0.00 22 1015.5
20230205182615 46 248 12.0 25.0 0.00 0.00 0.00 23 1015.2
20230205181501 46 0 13.0 24.0 0.00 0.00 0.00 22 1015.6
20230205180955 46 242 15.0 24.0 0.00 0.00 0.00 21 1015.7
20230205180449 46 319 15.0 24.0 0.00 0.00 0.00 22 1015.6
20230205175943 46 317 11.0 21.0 0.00 0.00 0.00 22 1015.7
20230205175707 46 335 8.0 22.0 0.00 0.00 0.00 22 1015.8
20230205174931 45 0 6.0 22.0 0.00 0.00 0.00 24 1016.1
20230205174655 44 263 2.0 7.0 0.00 0.00 0.00 21 1016.1
20230205173919 44 44 3.0 7.0 0.00 0.00 0.00 20 1016.4
20230205173416 44 96 3.0 9.0 0.00 0.00 0.00 20 1016.2
20230205172916 44 66 4.0 10.0 0.00 0.00 0.00 23 1016.5
20230205172645 43 69 4.0 10.0 0.00 0.00 0.00 27 1016.2
20230205171914 43 86 3.0 10.0 0.00 0.00 0.00 22 1016.2
20230205171415 43 116 4.0 10.0 0.00 0.00 0.00 23 1016.2
20230205170914 43 65 4.0 10.0 0.00 0.00 0.00 28 1016.2
20230205170415 43 136 4.0 8.0 0.00 0.00 0.00 22 1016.5
20230205165911 42 137 3.0 8.0 0.00 0.00 0.00 23 1016.4
20230205165413 41 151 2.0 7.0 0.00 0.00 0.00 25 1016.4
20230205164919 41 96 2.0 5.0 0.00 0.00 0.00 27 1016.5
20230205164913 41 96 2.0 7.0 0.00 0.00 0.00 22 1016.5
20230205163911 40 116 2.0 7.0 0.00 0.00 0.00 28 1016.8
20230205163411 40 76 2.0 7.0 0.00 0.00 0.00 23 1016.8
20230205162912 40 124 2.0 7.0 0.00 0.00 0.00 28 1016.9
20230205162413 40 142 2.0 4.0 0.00 0.00 0.00 26 1016.9
20230205161911 39 246 3.0 5.0 0.00 0.00 0.00 25 1017.0
20230205161642 39 209 4.0 8.0 0.00 0.00 0.00 23 1016.9
20230205160906 39 195 6.0 12.0 0.00 0.00 0.00 24 1016.8
20230205160407 38 229 8.0 13.0 0.00 0.00 0.00 27 1016.9
20230205155905 38 268 9.0 18.0 0.00 0.00 0.00 27 1016.8
20230205155406 38 240 11.0 22.0 0.00 0.00 0.00 25 1016.8
20230205154905 37 224 14.0 23.0 0.00 0.00 0.00 25 1016.8
20230205154405 37 254 15.0 24.0 0.00 0.00 0.00 25 1016.8
20230205153905 36 0 16.0 26.0 0.00 0.00 0.00 25 1016.9
20230205153405 36 282 18.0 27.0 0.00 0.00 0.00 26 1016.8
20230205152907 36 246 16.0 27.0 0.00 0.00 0.00 26 1016.6
20230205152403 35 247 16.0 24.0 0.00 0.00 0.00 27 1016.6
20230205151902 35 254 14.0 22.0 0.00 0.00 0.00 27 1016.6
20230205151634 35 0 12.0 22.0 0.00 0.00 0.00 28 1016.9
20230205150903 35 227 12.0 19.0 0.00 0.00 0.00 28 1016.9
20230205150402 35 202 11.0 18.0 0.00 0.00 0.00 27 1016.9
20230205145902 34 235 11.0 18.0 0.00 0.00 0.00 28 1016.9
20230205145403 34 253 11.0 18.0 0.00 0.00 0.00 28 1017.0
20230205144901 34 205 12.0 23.0 0.00 0.00 0.00 29 1016.9
20230205144633 33 219 14.0 26.0 0.00 0.00 0.00 28 1016.9
20230205144128 33 200 15.0 26.0 0.00 0.00 0.00 31 1016.8
20230205143350 33 229 14.0 24.0 0.00 0.00 0.00 29 1017.0
20230205142844 33 236 15.0 28.0 0.00 0.00 0.00 30 1016.9
20230205142339 32 227 14.0 28.0 0.00 0.00 0.00 30 1016.9
20230205142110 32 223 11.0 24.0 0.00 0.00 0.00 31 1016.9
20230205141340 32 227 11.0 20.0 0.00 0.00 0.00 30 1016.9
20230205140839 32 229 12.0 20.0 0.00 0.00 0.00 33 1017.0
20230205140339 32 231 11.0 18.0 0.00 0.00 0.00 32 1017.0
20230205135839 32 230 10.0 18.0 0.00 0.00 0.00 32 1017.1
20230205135339 32 246 10.0 18.0 0.00 0.00 0.00 31 1017.0
20230205134839 32 229 12.0 19.0 0.00 0.00 0.00 31 1017.0
20230205134340 32 228 12.0 21.0 0.00 0.00 0.00 31 1017.0
20230205133844 31 254 11.0 19.0 0.00 0.00 0.00 32 1017.0
20230205133839 31 215 11.0 21.0 0.00 0.00 0.00 33 1017.0
20230205132839 31 258 11.0 19.0 0.00 0.00 0.00 32 1016.9
20230205132339 31 252 11.0 19.0 0.00 0.00 0.00 33 1016.9
20230205131839 30 255 11.0 18.0 0.00 0.00 0.00 34 1016.9
20230205131611 30 244 9.0 14.0 0.00 0.00 0.00 33 1016.9
20230205130840 29 247 8.0 12.0 0.00 0.00 0.00 34 1017.0
20230205130340 29 234 7.0 11.0 0.00 0.00 0.00 34 1017.1
20230205125834 29 221 7.0 11.0 0.00 0.00 0.00 35 1017.1
20230205125328 29 223 5.0 13.0 0.00 0.00 0.00 34 1017.3
20230205125054 29 284 4.0 12.0 0.00 0.00 0.00 34 1017.1
20230205124316 29 251 5.0 9.0 0.00 0.00 0.00 35 1017.1
20230205123810 29 266 4.0 9.0 0.00 0.00 0.00 35 1017.1
20230205123303 29 306 2.0 8.0 0.00 0.00 0.00 34 1017.1
20230205122758 29 38 1.0 4.0 0.00 0.00 0.00 34 1017.3
20230205122251 30 63 1.0 3.0 0.00 0.00 0.00 34 1017.3
20230205121745 30 355 2.0 4.0 0.00 0.00 0.00 34 1017.4
20230205121240 30 355 2.0 9.0 0.00 0.00 0.00 33 1017.3
20230205120734 30 103 2.0 9.0 0.00 0.00 0.00 34 1017.4
20230205120228 30 207 3.0 7.0 0.00 0.00 0.00 34 1017.3
20230205115954 30 99 3.0 7.0 0.00 0.00 0.00 35 1017.1
20230205115216 30 71 2.0 6.0 0.00 0.00 0.00 31 1017.3
20230205114942 30 111 2.0 4.0 0.00 0.00 0.00 32 1017.3
20230205114203 30 111 1.0 4.0 0.00 0.00 0.00 31 1017.3
20230205113658 31 336 1.0 3.0 0.00 0.00 0.00 32 1017.4
20230205113151 31 336 2.0 7.0 0.00 0.00 0.00 31 1017.4
20230205112646 31 269 2.0 7.0 0.00 0.00 0.00 30 1017.3
20230205112140 31 340 2.0 7.0 0.00 0.00 0.00 30 1017.4
20230205111634 31 308 3.0 7.0 0.00 0.00 0.00 30 1017.4
20230205111131 31 248 4.0 11.0 0.00 0.00 0.00 30 1017.5
20230205110631 32 252 5.0 13.0 0.00 0.00 0.00 30 1017.5
20230205110131 32 276 4.0 13.0 0.00 0.00 0.00 30 1017.5
20230205105630 32 316 3.0 7.0 0.00 0.00 0.00 29 1017.5
20230205105130 32 342 5.0 13.0 0.00 0.00 0.00 30 1017.7
20230205104631 32 323 6.0 13.0 0.00 0.00 0.00 28 1017.7
20230205104131 32 316 5.0 12.0 0.00 0.00 0.00 29 1017.7
20230205103903 32 355 5.0 11.0 0.00 0.00 0.00 28 1017.8
20230205103131 32 340 6.0 11.0 0.00 0.00 0.00 28 1017.8
20230205102631 32 316 7.0 15.0 0.00 0.00 0.00 28 1017.8
20230205102128 32 254 6.0 15.0 0.00 0.00 0.00 28 1017.8
20230205101629 32 314 6.0 14.0 0.00 0.00 0.00 29 1017.8
20230205101129 31 279 6.0 14.0 0.00 0.00 0.00 28 1017.9
20230205100629 32 267 5.0 11.0 0.00 0.00 0.00 29 1017.9
20230205100401 32 281 6.0 12.0 0.00 0.00 0.00 30 1017.9
20230205095630 32 311 8.0 17.0 0.00 0.00 0.00 30 1018.1
20230205095124 32 250 9.0 20.0 0.00 0.00 0.00 30 1018.1
20230205094625 32 277 9.0 19.0 0.00 0.00 0.00 30 1018.2
20230205094124 32 279 11.0 20.0 0.00 0.00 0.00 31 1018.2
20230205093624 31 285 12.0 20.0 0.00 0.00 0.00 32 1018.2
20230205093125 31 284 12.0 19.0 0.00 0.00 0.00 32 1018.2
20230205092626 31 0 12.0 19.0 0.00 0.00 0.00 32 1018.2
20230205092356 31 277 12.0 19.0 0.00 0.00 0.00 33 1018.2
20230205091625 31 279 10.0 18.0 0.00 0.00 0.00 34 1018.2
20230205091125 31 263 11.0 18.0 0.00 0.00 0.00 34 1018.2
20230205090626 30 243 12.0 20.0 0.00 0.00 0.00 35 1018.2
20230205090356 30 0 12.0 20.0 0.00 0.00 0.00 37 1018.2
20230205085857 30 290 11.0 19.0 0.00 0.00 0.00 36 1018.2
20230205085358 30 255 9.0 19.0 0.00 0.00 0.00 38 1018.4
20230205084626 30 273 9.0 14.0 0.00 0.00 0.00 37 1018.2
20230205084125 30 287 8.0 15.0 0.00 0.00 0.00 38 1018.4
20230205083624 31 248 8.0 15.0 0.00 0.00 0.00 38 1018.4
20230205083126 31 305 10.0 24.0 0.00 0.00 0.00 37 1018.4
20230205082627 31 299 11.0 24.0 0.00 0.00 0.00 38 1018.4
20230205082622 31 253 11.0 21.0 0.00 0.00 0.00 37 1018.2
20230205081613 31 314 11.0 22.0 0.00 0.00 0.00 37 1018.3
20230205081339 31 282 13.0 22.0 0.00 0.00 0.00 35 1018.2
20230205080601 31 296 13.0 30.0 0.00 0.00 0.00 36 1018.2
20230205080055 31 305 13.0 27.0 0.00 0.00 0.00 36 1018.2
20230205075548 31 292 13.0 24.0 0.00 0.00 0.00 37 1018.2
20230205075043 31 304 13.0 24.0 0.00 0.00 0.00 38 1018.1
20230205074537 31 289 13.0 23.0 0.00 0.00 0.00 38 1018.2
20230205074301 30 0 11.0 23.0 0.00 0.00 0.00 38 1018.2
20230205073524 30 308 11.0 23.0 0.00 0.00 0.00 39 1018.2
20230205073024 30 265 12.0 24.0 0.00 0.00 0.00 39 1018.2
20230205072524 30 0 11.0 24.0 0.00 0.00 0.00 39 1018.3
20230205072024 31 264 10.0 18.0 0.00 0.00 0.00 39 1018.4
20230205071524 31 291 10.0 18.0 0.00 0.00 0.00 39 1018.7
20230205071025 31 282 10.0 19.0 0.00 0.00 0.00 39 1018.7
20230205070757 31 246 9.0 19.0 0.00 0.00 0.00 38 1018.7
20230205070023 31 281 8.0 17.0 0.00 0.00 0.00 39 1019.0
20230205065520 31 289 8.0 14.0 0.00 0.00 0.00 38 1018.8
20230205065020 31 247 9.0 18.0 0.00 0.00 0.00 38 1019.0
20230205064525 31 252 13.0 23.0 0.00 0.00 0.00 37 1019.0
20230205064520 31 243 10.0 21.0 0.00 0.00 0.00 38 1019.1
20230205063520 31 250 14.0 31.0 0.00 0.00 0.00 38 1019.0
20230205063021 31 258 14.0 31.0 0.00 0.00 0.00 38 1018.8
20230205062751 31 225 12.0 27.0 0.00 0.00 0.00 39 1018.8
20230205062021 32 214 12.0 23.0 0.00 0.00 0.00 38 1018.8
20230205061520 32 241 11.0 24.0 0.00 0.00 0.00 36 1018.8
20230205061015 32 189 11.0 25.0 0.00 0.00 0.00 37 1018.8
20230205060509 32 238 12.0 25.0 0.00 0.00 0.00 36 1019.0
20230205060003 32 277 12.0 26.0 0.00 0.00 0.00 35 1019.0
20230205055456 33 241 13.0 26.0 0.00 0.00 0.00 35 1019.0
20230205054951 33 245 11.0 25.0 0.00 0.00 0.00 32 1019.0
20230205054444 33 293 8.0 16.0 0.00 0.00 0.00 34 1019.0
20230205053939 33 260 7.0 13.0 0.00 0.00 0.00 31 1019.0
20230205053432 33 230 8.0 18.0 0.00 0.00 0.00 29 1019.1
20230205052927 33 219 9.0 18.0 0.00 0.00 0.00 30 1019.2
20230205052420 33 312 9.0 24.0 0.00 0.00 0.00 29 1019.1
20230205051914 33 238 10.0 24.0 0.00 0.00 0.00 28 1019.1
20230205051408 33 248 10.0 23.0 0.00 0.00 0.00 28 1019.1
20230205050903 33 242 10.0 23.0 0.00 0.00 0.00 27 1019.0
20230205050356 33 241 9.0 18.0 0.00 0.00 0.00 28 1019.0
20230205045851 33 265 7.0 17.0 0.00 0.00 0.00 28 1019.0
20230205045616 33 298 9.0 20.0 0.00 0.00 0.00 29 1019.0
20230205045340 33 214 11.0 26.0 0.00 0.00 0.00 28 1019.0
20230205044333 32 230 11.0 26.0 0.00 0.00 0.00 29 1019.0
20230205043827 32 282 10.0 18.0 0.00 0.00 0.00 31 1018.8
20230205043321 32 221 11.0 18.0 0.00 0.00 0.00 33 1018.7
20230205042815 32 229 12.0 21.0 0.00 0.00 0.00 34 1018.7
20230205042308 32 232 15.0 29.0 0.00 0.00 0.00 35 1018.6
20230205041803 32 243 16.0 30.0 0.00 0.00 0.00 37 1018.4
20230205041256 32 234 18.0 32.0 0.00 0.00 0.00 36 1018.3
20230205040751 32 260 20.0 36.0 0.00 0.00 0.00 37 1018.2
20230205040244 33 262 22.0 39.0 0.00 0.00 0.00 36 1018.1
20230205035739 33 297 23.0 39.0 0.00 0.00 0.00 37 1017.8
20230205035233 33 240 24.0 38.0 0.00 0.00 0.00 36 1017.8
20230205034958 32 241 24.0 40.0 0.00 0.00 0.00 37 1017.7
20230205034220 32 230 23.0 38.0 0.00 0.00 0.00 37 1017.7
20230205033947 32 248 23.0 42.0 0.00 0.00 0.00 38 1017.7
20230205033209 32 257 25.0 42.0 0.00 0.00 0.00 39 1017.7
20230205032933 32 257 24.0 43.0 0.00 0.00 0.00 39 1017.5
20230205032157 32 271 24.0 43.0 0.00 0.00 0.00 40 1017.7
20230205031651 32 282 23.0 36.0 0.00 0.00 0.00 38 1017.5
20230205031145 32 263 21.0 36.0 0.00 0.00 0.00 39 1017.7
20230205030645 32 260 24.0 45.0 0.00 0.00 0.00 38 1017.5
20230205030145 32 263 25.0 45.0 0.00 0.00 0.00 39 1017.4
20230205025644 32 246 26.0 42.0 0.00 0.00 0.00 38 1017.5
20230205025417 33 252 27.0 47.0 0.00 0.00 0.00 37 1017.3
20230205024645 33 254 27.0 47.0 0.00 0.00 0.00 37 1017.1
20230205024421 33 265 27.0 44.0 0.00 0.00 0.00 36 1017.0
20230205024145 33 249 26.0 44.0 0.00 0.00 0.00 37 1017.0
20230205023802 33 0 27.0 44.0 0.00 0.00 0.00 35 1016.9
20230205022643 33 293 26.0 44.0 0.00 0.00 0.00 35 1016.9
20230205022143 33 250 23.0 46.0 0.00 0.00 0.00 34 1016.5
20230205021642 33 256 23.0 46.0 0.00 0.00 0.00 34 1016.9
20230205021147 33 284 27.0 41.0 0.00 0.00 0.00 33 1016.9
20230205021143 33 242 26.0 41.0 0.00 0.00 0.00 33 1016.9
20230205020142 33 283 25.0 39.0 0.00 0.00 0.00 34 1016.9
20230205015643 33 254 25.0 44.0 0.00 0.00 0.00 33 1016.9
20230205015140 33 0 26.0 45.0 0.00 0.00 0.00 34 1016.9
20230205014910 33 0 26.0 45.0 0.00 0.00 0.00 34 1016.5
20230205014139 33 225 26.0 45.0 0.00 0.00 0.00 34 1016.8
20230205013911 33 229 25.0 45.0 0.00 0.00 0.00 36 1016.8
20230205013145 33 246 25.0 45.0 0.00 0.00 0.00 36 1016.8
20230205013140 33 292 26.0 45.0 0.00 0.00 0.00 36 1016.8
20230205012139 33 0 24.0 43.0 0.00 0.00 0.00 36 1017.0
20230205011643 32 243 22.0 40.0 0.00 0.00 0.00 37 1016.9
20230205011639 33 0 25.0 40.0 0.00 0.00 0.00 37 1016.9
20230205010639 32 261 22.0 40.0 0.00 0.00 0.00 38 1017.0
20230205010139 32 251 25.0 40.0 0.00 0.00 0.00 40 1016.6
20230205005639 32 0 25.0 42.0 0.00 0.00 0.00 39 1016.9
20230205005411 32 231 24.0 42.0 0.00 0.00 0.00 39 1016.8
20230205004639 32 245 23.0 42.0 0.00 0.00 0.00 39 1016.8
20230205004140 32 244 23.0 42.0 0.00 0.00 0.00 41 1016.9
20230205003641 32 277 22.0 42.0 0.00 0.00 0.00 41 1016.8
20230205003140 32 296 22.0 36.0 0.00 0.00 0.00 40 1016.8
20230205002640 32 323 22.0 41.0 0.00 0.00 0.00 40 1017.0
20230205002140 32 293 23.0 43.0 0.00 0.00 0.00 40 1016.9
20230205001634 33 254 24.0 43.0 0.00 0.00 0.00 40 1016.8
20230205001127 33 254 22.0 41.0 0.00 0.00 0.00 40 1017.0
20230205000621 33 234 23.0 43.0 0.00 0.00 0.00 40 1016.6
20230205000347 33 253 24.0 43.0 0.00 0.00 0.00 40 1016.6
20230204235610 33 248 24.0 45.0 0.00 0.00 0.00 38 1016.2
20230204235104 33 0 24.0 46.0 0.00 0.00 0.00 39 1016.4
20230204234558 33 280 24.0 46.0 0.00 0.00 0.00 38 1016.5
20230204234052 34 283 24.0 47.0 0.00 0.00 0.00 38 1016.5
20230204233546 34 246 24.0 47.0 0.00 0.00 0.00 38 1016.4
20230204233040 34 258 25.0 46.0 0.00 0.00 0.00 37 1016.6
20230204232535 34 241 24.0 46.0 0.00 0.00 0.00 38 1016.6
20230204232027 34 290 23.0 39.0 0.00 0.00 0.00 37 1016.5
20230204231521 34 252 23.0 43.0 0.00 0.00 0.00 38 1016.8
20230204231016 35 246 22.0 43.0 0.00 0.00 0.00 38 1016.9
20230204230510 35 273 22.0 43.0 0.00 0.00 0.00 38 1016.9
20230204230004 35 0 23.0 43.0 0.00 0.00 0.00 37 1017.3
20230204225458 35 257 23.0 38.0 0.00 0.00 0.00 38 1017.1
20230204224952 35 283 25.0 49.0 0.00 0.00 0.00 37 1016.9
20230204224446 35 244 25.0 49.0 0.00 0.00 0.00 37 1016.6
20230204223940 35 331 23.0 43.0 0.00 0.00 0.00 37 1016.6
20230204223434 36 0 24.0 46.0 0.00 0.00 0.00 36 1016.6
20230204222928 36 262 25.0 46.0 0.00 0.00 0.00 36 1016.9
20230204222422 36 0 25.0 44.0 0.00 0.00 0.00 35 1016.6
20230204221916 36 0 25.0 44.0 0.00 0.00 0.00 35 1016.6
20230204221410 36 279 25.0 42.0 0.00 0.00 0.00 35 1016.5
20230204220904 36 299 23.0 44.0 0.00 0.00 0.00 34 1016.8
20230204220358 36 0 20.0 38.0 0.00 0.00 0.00 36 1016.9
20230204215851 36 254 20.0 38.0 0.00 0.00 0.00 35 1016.8
20230204215618 36 251 23.0 36.0 0.00 0.00 0.00 37 1016.9
20230204215110 36 0 23.0 40.0 0.00 0.00 0.00 35 1016.9
20230204214604 36 0 23.0 42.0 0.00 0.00 0.00 35 1016.8
20230204213828 36 264 22.0 42.0 0.00 0.00 0.00 35 1017.0
20230204213823 36 0 23.0 42.0 0.00 0.00 0.00 35 1017.0
20230204213046 36 0 23.0 40.0 0.00 0.00 0.00 37 1017.1
20230204212309 36 275 22.0 40.0 0.00 0.00 0.00 35 1017.3
20230204211804 36 244 22.0 38.0 0.00 0.00 0.00 37 1017.3
20230204211258 36 278 23.0 41.0 0.00 0.00 0.00 35 1017.3
20230204210752 36 252 22.0 41.0 0.00 0.00 0.00 36 1017.3
20230204210246 36 232 23.0 40.0 0.00 0.00 0.00 36 1017.4